sensor_id;sensor_type;location;lat;lon;timestamp;P1;durP1;ratioP1;P2;durP2;ratioP2
18887;SDS011;9576;47.792;9.628;2023-08-21T00:02:17;12.35;;;7.53;;
18887;SDS011;9576;47.792;9.628;2023-08-21T00:05:20;15.85;;;7.05;;
18887;SDS011;9576;47.792;9.628;2023-08-21T00:08:22;17.42;;;8.43;;
18887;SDS011;9576;47.792;9.628;2023-08-21T00:11:24;12.40;;;7.88;;
18887;SDS011;9576;47.792;9.628;2023-08-21T00:14:26;16.27;;;9.35;;
18887;SDS011;9576;47.792;9.628;2023-08-21T00:17:28;12.20;;;7.68;;
18887;SDS011;9576;47.792;9.628;2023-08-21T00:20:31;20.70;;;8.43;;
18887;SDS011;9576;47.792;9.628;2023-08-21T00:23:33;17.80;;;8.00;;
18887;SDS011;9576;47.792;9.628;2023-08-21T00:26:35;25.33;;;8.88;;
18887;SDS011;9576;47.792;9.628;2023-08-21T00:29:37;16.67;;;8.98;;
18887;SDS011;9576;47.792;9.628;2023-08-21T00:32:39;16.02;;;8.18;;
18887;SDS011;9576;47.792;9.628;2023-08-21T00:35:42;12.65;;;7.57;;
18887;SDS011;9576;47.792;9.628;2023-08-21T00:38:44;18.42;;;8.18;;
18887;SDS011;9576;47.792;9.628;2023-08-21T00:41:47;19.52;;;7.70;;
18887;SDS011;9576;47.792;9.628;2023-08-21T00:44:49;14.60;;;8.45;;
18887;SDS011;9576;47.792;9.628;2023-08-21T00:47:51;13.23;;;8.25;;
18887;SDS011;9576;47.792;9.628;2023-08-21T00:50:54;14.55;;;8.02;;
18887;SDS011;9576;47.792;9.628;2023-08-21T00:53:57;22.33;;;7.43;;
18887;SDS011;9576;47.792;9.628;2023-08-21T00:56:59;17.23;;;8.02;;
18887;SDS011;9576;47.792;9.628;2023-08-21T01:00:03;13.82;;;7.95;;
18887;SDS011;9576;47.792;9.628;2023-08-21T01:03:07;16.55;;;7.07;;
18887;SDS011;9576;47.792;9.628;2023-08-21T01:06:11;15.00;;;7.38;;
18887;SDS011;9576;47.792;9.628;2023-08-21T01:09:15;14.60;;;8.05;;
18887;SDS011;9576;47.792;9.628;2023-08-21T01:12:25;22.48;;;8.00;;
18887;SDS011;9576;47.792;9.628;2023-08-21T01:15:34;18.65;;;8.43;;
18887;SDS011;9576;47.792;9.628;2023-08-21T01:18:37;14.07;;;8.07;;
18887;SDS011;9576;47.792;9.628;2023-08-21T01:21:42;15.25;;;9.45;;
18887;SDS011;9576;47.792;9.628;2023-08-21T01:24:45;13.45;;;8.38;;
18887;SDS011;9576;47.792;9.628;2023-08-21T01:27:47;15.60;;;8.48;;
18887;SDS011;9576;47.792;9.628;2023-08-21T01:30:51;12.27;;;8.20;;
18887;SDS011;9576;47.792;9.628;2023-08-21T01:33:59;18.38;;;8.25;;
18887;SDS011;9576;47.792;9.628;2023-08-21T01:37:04;12.50;;;8.40;;
18887;SDS011;9576;47.792;9.628;2023-08-21T01:40:10;16.40;;;8.40;;
18887;SDS011;9576;47.792;9.628;2023-08-21T01:43:12;13.32;;;9.18;;
18887;SDS011;9576;47.792;9.628;2023-08-21T01:46:14;17.90;;;8.68;;
18887;SDS011;9576;47.792;9.628;2023-08-21T01:49:15;13.15;;;7.82;;
18887;SDS011;9576;47.792;9.628;2023-08-21T01:52:19;20.15;;;8.50;;
18887;SDS011;9576;47.792;9.628;2023-08-21T01:55:22;19.20;;;9.45;;
18887;SDS011;9576;47.792;9.628;2023-08-21T01:58:24;12.85;;;8.10;;
18887;SDS011;9576;47.792;9.628;2023-08-21T02:01:26;14.10;;;8.60;;
18887;SDS011;9576;47.792;9.628;2023-08-21T02:04:28;20.13;;;9.07;;
18887;SDS011;9576;47.792;9.628;2023-08-21T02:07:30;14.13;;;8.38;;
18887;SDS011;9576;47.792;9.628;2023-08-21T02:10:33;15.02;;;8.55;;
18887;SDS011;9576;47.792;9.628;2023-08-21T02:13:35;14.77;;;8.52;;
18887;SDS011;9576;47.792;9.628;2023-08-21T02:16:37;11.57;;;8.95;;
18887;SDS011;9576;47.792;9.628;2023-08-21T02:19:39;19.42;;;9.35;;
18887;SDS011;9576;47.792;9.628;2023-08-21T02:22:41;15.13;;;9.38;;
18887;SDS011;9576;47.792;9.628;2023-08-21T02:25:44;13.02;;;9.05;;
18887;SDS011;9576;47.792;9.628;2023-08-21T02:28:46;13.45;;;8.85;;
18887;SDS011;9576;47.792;9.628;2023-08-21T02:31:48;13.32;;;9.02;;
18887;SDS011;9576;47.792;9.628;2023-08-21T02:34:50;15.40;;;7.75;;
18887;SDS011;9576;47.792;9.628;2023-08-21T02:37:52;16.92;;;8.18;;
18887;SDS011;9576;47.792;9.628;2023-08-21T02:40:55;15.77;;;8.95;;
18887;SDS011;9576;47.792;9.628;2023-08-21T02:43:57;11.13;;;7.90;;
18887;SDS011;9576;47.792;9.628;2023-08-21T02:46:59;17.02;;;8.05;;
18887;SDS011;9576;47.792;9.628;2023-08-21T02:50:00;12.85;;;8.80;;
18887;SDS011;9576;47.792;9.628;2023-08-21T02:53:03;12.55;;;9.48;;
18887;SDS011;9576;47.792;9.628;2023-08-21T02:56:06;16.08;;;8.13;;
18887;SDS011;9576;47.792;9.628;2023-08-21T02:59:08;25.10;;;9.30;;
18887;SDS011;9576;47.792;9.628;2023-08-21T03:02:10;21.75;;;8.80;;
18887;SDS011;9576;47.792;9.628;2023-08-21T03:05:12;20.55;;;8.70;;
18887;SDS011;9576;47.792;9.628;2023-08-21T03:08:14;21.15;;;9.63;;
18887;SDS011;9576;47.792;9.628;2023-08-21T03:11:18;21.10;;;10.23;;
18887;SDS011;9576;47.792;9.628;2023-08-21T03:14:20;14.60;;;8.85;;
18887;SDS011;9576;47.792;9.628;2023-08-21T03:17:22;12.25;;;8.80;;
18887;SDS011;9576;47.792;9.628;2023-08-21T03:20:25;30.23;;;12.45;;
18887;SDS011;9576;47.792;9.628;2023-08-21T03:23:26;15.23;;;8.68;;
18887;SDS011;9576;47.792;9.628;2023-08-21T03:26:30;14.52;;;8.85;;
18887;SDS011;9576;47.792;9.628;2023-08-21T03:29:32;19.45;;;8.43;;
18887;SDS011;9576;47.792;9.628;2023-08-21T03:32:33;16.27;;;9.23;;
18887;SDS011;9576;47.792;9.628;2023-08-21T03:35:35;16.20;;;8.77;;
18887;SDS011;9576;47.792;9.628;2023-08-21T03:38:37;17.60;;;10.02;;
18887;SDS011;9576;47.792;9.628;2023-08-21T03:41:41;15.57;;;9.20;;
18887;SDS011;9576;47.792;9.628;2023-08-21T03:44:42;17.52;;;8.95;;
18887;SDS011;9576;47.792;9.628;2023-08-21T03:47:45;19.95;;;9.73;;
18887;SDS011;9576;47.792;9.628;2023-08-21T03:50:47;22.83;;;9.68;;
18887;SDS011;9576;47.792;9.628;2023-08-21T03:53:48;20.33;;;8.90;;
18887;SDS011;9576;47.792;9.628;2023-08-21T03:56:52;20.17;;;8.98;;
18887;SDS011;9576;47.792;9.628;2023-08-21T03:59:54;19.33;;;9.73;;
18887;SDS011;9576;47.792;9.628;2023-08-21T04:02:55;18.67;;;11.73;;
18887;SDS011;9576;47.792;9.628;2023-08-21T04:05:58;17.30;;;9.10;;
18887;SDS011;9576;47.792;9.628;2023-08-21T04:09:00;18.15;;;8.85;;
18887;SDS011;9576;47.792;9.628;2023-08-21T04:12:07;14.65;;;8.82;;
18887;SDS011;9576;47.792;9.628;2023-08-21T04:15:09;18.52;;;9.57;;
18887;SDS011;9576;47.792;9.628;2023-08-21T04:18:11;17.27;;;9.93;;
18887;SDS011;9576;47.792;9.628;2023-08-21T04:21:13;21.80;;;9.93;;
18887;SDS011;9576;47.792;9.628;2023-08-21T04:24:15;13.75;;;9.55;;
18887;SDS011;9576;47.792;9.628;2023-08-21T04:27:18;19.13;;;8.57;;
18887;SDS011;9576;47.792;9.628;2023-08-21T04:30:20;16.25;;;9.30;;
18887;SDS011;9576;47.792;9.628;2023-08-21T04:33:22;19.80;;;9.35;;
18887;SDS011;9576;47.792;9.628;2023-08-21T04:36:24;26.73;;;10.88;;
18887;SDS011;9576;47.792;9.628;2023-08-21T04:39:26;15.30;;;8.57;;
18887;SDS011;9576;47.792;9.628;2023-08-21T04:42:29;15.10;;;10.23;;
18887;SDS011;9576;47.792;9.628;2023-08-21T04:45:31;13.82;;;9.43;;
18887;SDS011;9576;47.792;9.628;2023-08-21T04:48:33;23.73;;;11.23;;
18887;SDS011;9576;47.792;9.628;2023-08-21T04:51:35;16.17;;;10.10;;
18887;SDS011;9576;47.792;9.628;2023-08-21T04:54:37;19.15;;;9.68;;
18887;SDS011;9576;47.792;9.628;2023-08-21T04:57:40;22.48;;;9.50;;
18887;SDS011;9576;47.792;9.628;2023-08-21T05:00:44;18.27;;;9.85;;
18887;SDS011;9576;47.792;9.628;2023-08-21T05:03:46;17.92;;;10.63;;
18887;SDS011;9576;47.792;9.628;2023-08-21T05:06:47;24.42;;;10.88;;
18887;SDS011;9576;47.792;9.628;2023-08-21T05:09:49;18.00;;;9.93;;
18887;SDS011;9576;47.792;9.628;2023-08-21T05:12:53;14.80;;;9.77;;
18887;SDS011;9576;47.792;9.628;2023-08-21T05:15:55;26.25;;;9.77;;
18887;SDS011;9576;47.792;9.628;2023-08-21T05:18:58;18.63;;;9.73;;
18887;SDS011;9576;47.792;9.628;2023-08-21T05:22:00;16.55;;;9.55;;
18887;SDS011;9576;47.792;9.628;2023-08-21T05:25:02;15.32;;;10.13;;
18887;SDS011;9576;47.792;9.628;2023-08-21T05:28:06;21.70;;;10.05;;
18887;SDS011;9576;47.792;9.628;2023-08-21T05:31:08;14.95;;;10.05;;
18887;SDS011;9576;47.792;9.628;2023-08-21T05:34:10;20.58;;;11.23;;
18887;SDS011;9576;47.792;9.628;2023-08-21T05:37:12;17.77;;;10.18;;
18887;SDS011;9576;47.792;9.628;2023-08-21T05:40:14;17.08;;;11.00;;
18887;SDS011;9576;47.792;9.628;2023-08-21T05:43:17;14.27;;;9.77;;
18887;SDS011;9576;47.792;9.628;2023-08-21T05:46:19;22.10;;;11.18;;
18887;SDS011;9576;47.792;9.628;2023-08-21T05:49:21;26.73;;;11.52;;
18887;SDS011;9576;47.792;9.628;2023-08-21T05:52:23;21.60;;;11.25;;
18887;SDS011;9576;47.792;9.628;2023-08-21T05:55:25;32.97;;;11.85;;
18887;SDS011;9576;47.792;9.628;2023-08-21T05:58:28;22.35;;;11.02;;
18887;SDS011;9576;47.792;9.628;2023-08-21T06:01:32;26.58;;;12.30;;
18887;SDS011;9576;47.792;9.628;2023-08-21T06:04:34;25.40;;;10.07;;
18887;SDS011;9576;47.792;9.628;2023-08-21T06:07:36;19.25;;;10.75;;
18887;SDS011;9576;47.792;9.628;2023-08-21T06:10:40;19.20;;;12.88;;
18887;SDS011;9576;47.792;9.628;2023-08-21T06:13:43;27.23;;;14.00;;
18887;SDS011;9576;47.792;9.628;2023-08-21T06:16:45;18.73;;;12.48;;
18887;SDS011;9576;47.792;9.628;2023-08-21T06:19:47;20.92;;;12.45;;
18887;SDS011;9576;47.792;9.628;2023-08-21T06:22:49;28.38;;;11.00;;
18887;SDS011;9576;47.792;9.628;2023-08-21T06:25:51;24.52;;;11.55;;
18887;SDS011;9576;47.792;9.628;2023-08-21T06:28:54;20.08;;;11.38;;
18887;SDS011;9576;47.792;9.628;2023-08-21T06:31:56;26.75;;;11.73;;
18887;SDS011;9576;47.792;9.628;2023-08-21T06:34:58;26.63;;;11.88;;
18887;SDS011;9576;47.792;9.628;2023-08-21T06:38:00;18.75;;;12.15;;
18887;SDS011;9576;47.792;9.628;2023-08-21T06:41:02;17.65;;;11.85;;
18887;SDS011;9576;47.792;9.628;2023-08-21T06:44:05;37.20;;;13.43;;
18887;SDS011;9576;47.792;9.628;2023-08-21T06:47:07;21.25;;;10.65;;
18887;SDS011;9576;47.792;9.628;2023-08-21T06:50:09;18.80;;;10.85;;
18887;SDS011;9576;47.792;9.628;2023-08-21T06:53:11;18.73;;;10.75;;
18887;SDS011;9576;47.792;9.628;2023-08-21T06:56:13;21.35;;;10.13;;
18887;SDS011;9576;47.792;9.628;2023-08-21T06:59:17;15.63;;;10.60;;
18887;SDS011;9576;47.792;9.628;2023-08-21T07:02:19;23.13;;;10.95;;
18887;SDS011;9576;47.792;9.628;2023-08-21T07:05:21;22.98;;;11.45;;
18887;SDS011;9576;47.792;9.628;2023-08-21T07:08:23;15.38;;;10.10;;
18887;SDS011;9576;47.792;9.628;2023-08-21T07:11:26;23.55;;;10.82;;
18887;SDS011;9576;47.792;9.628;2023-08-21T07:14:29;24.38;;;10.93;;
18887;SDS011;9576;47.792;9.628;2023-08-21T07:17:31;15.95;;;10.27;;
18887;SDS011;9576;47.792;9.628;2023-08-21T07:20:33;22.23;;;10.68;;
18887;SDS011;9576;47.792;9.628;2023-08-21T07:23:35;17.23;;;10.20;;
18887;SDS011;9576;47.792;9.628;2023-08-21T07:26:37;18.65;;;10.35;;
18887;SDS011;9576;47.792;9.628;2023-08-21T07:29:40;26.60;;;11.35;;
18887;SDS011;9576;47.792;9.628;2023-08-21T07:32:42;17.25;;;10.00;;
18887;SDS011;9576;47.792;9.628;2023-08-21T07:35:44;40.72;;;11.23;;
18887;SDS011;9576;47.792;9.628;2023-08-21T07:38:45;31.95;;;10.65;;
18887;SDS011;9576;47.792;9.628;2023-08-21T07:41:47;21.85;;;11.57;;
18887;SDS011;9576;47.792;9.628;2023-08-21T07:44:51;34.00;;;12.68;;
18887;SDS011;9576;47.792;9.628;2023-08-21T07:47:53;30.33;;;12.93;;
18887;SDS011;9576;47.792;9.628;2023-08-21T07:50:54;26.70;;;10.57;;
18887;SDS011;9576;47.792;9.628;2023-08-21T07:53:57;23.73;;;10.38;;
18887;SDS011;9576;47.792;9.628;2023-08-21T07:56:59;15.75;;;9.75;;
18887;SDS011;9576;47.792;9.628;2023-08-21T08:00:02;17.30;;;10.02;;
18887;SDS011;9576;47.792;9.628;2023-08-21T08:03:08;22.15;;;10.75;;
18887;SDS011;9576;47.792;9.628;2023-08-21T08:06:10;21.33;;;10.73;;
18887;SDS011;9576;47.792;9.628;2023-08-21T08:09:12;28.35;;;12.00;;
18887;SDS011;9576;47.792;9.628;2023-08-21T08:12:14;28.25;;;13.15;;
18887;SDS011;9576;47.792;9.628;2023-08-21T08:15:18;25.50;;;10.85;;
18887;SDS011;9576;47.792;9.628;2023-08-21T08:18:20;25.27;;;11.05;;
18887;SDS011;9576;47.792;9.628;2023-08-21T08:21:22;23.15;;;11.73;;
18887;SDS011;9576;47.792;9.628;2023-08-21T08:24:23;26.73;;;10.13;;
18887;SDS011;9576;47.792;9.628;2023-08-21T08:27:25;21.33;;;9.00;;
18887;SDS011;9576;47.792;9.628;2023-08-21T08:30:29;18.83;;;10.07;;
18887;SDS011;9576;47.792;9.628;2023-08-21T08:33:31;23.50;;;10.68;;
18887;SDS011;9576;47.792;9.628;2023-08-21T08:36:32;24.45;;;9.48;;
18887;SDS011;9576;47.792;9.628;2023-08-21T08:39:34;16.23;;;9.68;;
18887;SDS011;9576;47.792;9.628;2023-08-21T08:42:36;25.92;;;9.55;;
18887;SDS011;9576;47.792;9.628;2023-08-21T08:45:41;23.20;;;9.95;;
18887;SDS011;9576;47.792;9.628;2023-08-21T08:48:45;16.73;;;9.25;;
18887;SDS011;9576;47.792;9.628;2023-08-21T08:51:48;17.13;;;9.45;;
18887;SDS011;9576;47.792;9.628;2023-08-21T08:57:55;17.83;;;9.45;;
18887;SDS011;9576;47.792;9.628;2023-08-21T09:00:58;25.33;;;9.73;;
18887;SDS011;9576;47.792;9.628;2023-08-21T09:04:00;23.33;;;10.85;;
18887;SDS011;9576;47.792;9.628;2023-08-21T09:07:06;22.85;;;9.10;;
18887;SDS011;9576;47.792;9.628;2023-08-21T09:10:12;22.83;;;9.88;;
18887;SDS011;9576;47.792;9.628;2023-08-21T09:13:15;22.73;;;9.45;;
18887;SDS011;9576;47.792;9.628;2023-08-21T09:16:20;16.35;;;9.73;;
18887;SDS011;9576;47.792;9.628;2023-08-21T09:19:22;16.30;;;10.82;;
18887;SDS011;9576;47.792;9.628;2023-08-21T09:22:24;25.83;;;10.80;;
18887;SDS011;9576;47.792;9.628;2023-08-21T09:25:26;25.83;;;10.60;;
18887;SDS011;9576;47.792;9.628;2023-08-21T09:28:28;19.58;;;11.98;;
18887;SDS011;9576;47.792;9.628;2023-08-21T09:31:34;23.15;;;9.55;;
18887;SDS011;9576;47.792;9.628;2023-08-21T09:34:38;20.58;;;10.25;;
18887;SDS011;9576;47.792;9.628;2023-08-21T09:37:40;22.75;;;10.38;;
18887;SDS011;9576;47.792;9.628;2023-08-21T09:40:42;30.70;;;9.60;;
18887;SDS011;9576;47.792;9.628;2023-08-21T09:43:45;20.33;;;9.73;;
18887;SDS011;9576;47.792;9.628;2023-08-21T09:46:49;22.42;;;8.82;;
18887;SDS011;9576;47.792;9.628;2023-08-21T09:49:51;23.08;;;9.43;;
18887;SDS011;9576;47.792;9.628;2023-08-21T09:52:53;18.55;;;8.57;;
18887;SDS011;9576;47.792;9.628;2023-08-21T09:55:55;15.38;;;9.23;;
18887;SDS011;9576;47.792;9.628;2023-08-21T09:58:57;31.40;;;16.00;;
18887;SDS011;9576;47.792;9.628;2023-08-21T10:02:01;17.00;;;9.90;;
18887;SDS011;9576;47.792;9.628;2023-08-21T10:05:05;17.88;;;8.48;;
18887;SDS011;9576;47.792;9.628;2023-08-21T10:08:07;15.43;;;9.75;;
18887;SDS011;9576;47.792;9.628;2023-08-21T10:11:10;26.35;;;9.90;;
18887;SDS011;9576;47.792;9.628;2023-08-21T10:14:13;15.10;;;8.25;;
18887;SDS011;9576;47.792;9.628;2023-08-21T10:17:16;15.05;;;8.27;;
18887;SDS011;9576;47.792;9.628;2023-08-21T10:20:20;14.93;;;8.27;;
18887;SDS011;9576;47.792;9.628;2023-08-21T10:23:24;12.35;;;7.75;;
18887;SDS011;9576;47.792;9.628;2023-08-21T10:26:28;12.02;;;7.93;;
18887;SDS011;9576;47.792;9.628;2023-08-21T10:29:30;15.23;;;8.65;;
18887;SDS011;9576;47.792;9.628;2023-08-21T10:32:34;24.80;;;10.07;;
18887;SDS011;9576;47.792;9.628;2023-08-21T10:35:45;17.42;;;8.73;;
18887;SDS011;9576;47.792;9.628;2023-08-21T10:38:58;18.02;;;8.50;;
18887;SDS011;9576;47.792;9.628;2023-08-21T10:42:01;23.17;;;9.85;;
18887;SDS011;9576;47.792;9.628;2023-08-21T10:45:09;10.48;;;7.50;;
18887;SDS011;9576;47.792;9.628;2023-08-21T10:48:13;17.58;;;8.20;;
18887;SDS011;9576;47.792;9.628;2023-08-21T10:51:15;16.52;;;7.13;;
18887;SDS011;9576;47.792;9.628;2023-08-21T10:54:18;13.35;;;6.93;;
18887;SDS011;9576;47.792;9.628;2023-08-21T10:57:21;20.88;;;9.35;;
18887;SDS011;9576;47.792;9.628;2023-08-21T11:00:23;18.87;;;8.33;;
18887;SDS011;9576;47.792;9.628;2023-08-21T11:03:27;15.15;;;8.02;;
18887;SDS011;9576;47.792;9.628;2023-08-21T11:06:29;18.38;;;7.30;;
18887;SDS011;9576;47.792;9.628;2023-08-21T11:09:31;25.55;;;12.73;;
18887;SDS011;9576;47.792;9.628;2023-08-21T11:12:36;17.02;;;7.10;;
18887;SDS011;9576;47.792;9.628;2023-08-21T11:15:38;63.90;;;29.63;;
18887;SDS011;9576;47.792;9.628;2023-08-21T11:18:42;19.33;;;7.68;;
18887;SDS011;9576;47.792;9.628;2023-08-21T11:21:50;17.88;;;6.40;;
18887;SDS011;9576;47.792;9.628;2023-08-21T11:24:52;24.95;;;6.32;;
18887;SDS011;9576;47.792;9.628;2023-08-21T11:27:54;25.13;;;5.88;;
18887;SDS011;9576;47.792;9.628;2023-08-21T11:30:57;14.45;;;6.45;;
18887;SDS011;9576;47.792;9.628;2023-08-21T11:34:01;19.33;;;6.78;;
18887;SDS011;9576;47.792;9.628;2023-08-21T11:37:03;9.98;;;6.15;;
18887;SDS011;9576;47.792;9.628;2023-08-21T11:40:06;13.45;;;6.65;;
18887;SDS011;9576;47.792;9.628;2023-08-21T11:46:12;18.83;;;6.32;;
18887;SDS011;9576;47.792;9.628;2023-08-21T11:49:16;13.98;;;6.30;;
18887;SDS011;9576;47.792;9.628;2023-08-21T11:52:18;25.40;;;5.60;;
18887;SDS011;9576;47.792;9.628;2023-08-21T11:55:21;9.73;;;5.30;;
18887;SDS011;9576;47.792;9.628;2023-08-21T11:58:25;16.60;;;6.40;;
18887;SDS011;9576;47.792;9.628;2023-08-21T12:01:27;16.23;;;6.55;;
18887;SDS011;9576;47.792;9.628;2023-08-21T12:04:35;8.65;;;5.65;;
18887;SDS011;9576;47.792;9.628;2023-08-21T12:07:37;22.15;;;6.13;;
18887;SDS011;9576;47.792;9.628;2023-08-21T12:10:39;18.92;;;7.63;;
18887;SDS011;9576;47.792;9.628;2023-08-21T12:13:41;17.90;;;5.05;;
18887;SDS011;9576;47.792;9.628;2023-08-21T12:16:43;17.20;;;6.60;;
18887;SDS011;9576;47.792;9.628;2023-08-21T12:19:46;16.42;;;5.85;;
18887;SDS011;9576;47.792;9.628;2023-08-21T12:22:48;13.18;;;5.07;;
18887;SDS011;9576;47.792;9.628;2023-08-21T12:25:50;13.10;;;5.65;;
18887;SDS011;9576;47.792;9.628;2023-08-21T12:28:52;17.75;;;4.60;;
18887;SDS011;9576;47.792;9.628;2023-08-21T12:31:54;7.30;;;4.70;;
18887;SDS011;9576;47.792;9.628;2023-08-21T12:34:57;12.00;;;5.10;;
18887;SDS011;9576;47.792;9.628;2023-08-21T12:37:59;13.83;;;5.17;;
18887;SDS011;9576;47.792;9.628;2023-08-21T12:41:05;14.07;;;6.05;;
18887;SDS011;9576;47.792;9.628;2023-08-21T12:44:07;13.48;;;5.00;;
18887;SDS011;9576;47.792;9.628;2023-08-21T12:47:09;10.57;;;4.95;;
18887;SDS011;9576;47.792;9.628;2023-08-21T12:50:13;9.50;;;4.43;;
18887;SDS011;9576;47.792;9.628;2023-08-21T12:53:15;14.95;;;4.82;;
18887;SDS011;9576;47.792;9.628;2023-08-21T12:56:17;8.85;;;4.93;;
18887;SDS011;9576;47.792;9.628;2023-08-21T12:59:19;11.55;;;4.50;;
18887;SDS011;9576;47.792;9.628;2023-08-21T13:02:21;13.73;;;5.00;;
18887;SDS011;9576;47.792;9.628;2023-08-21T13:05:25;23.77;;;12.07;;
18887;SDS011;9576;47.792;9.628;2023-08-21T13:08:27;16.30;;;4.97;;
18887;SDS011;9576;47.792;9.628;2023-08-21T13:11:29;13.95;;;4.90;;
18887;SDS011;9576;47.792;9.628;2023-08-21T13:14:31;13.25;;;5.55;;
18887;SDS011;9576;47.792;9.628;2023-08-21T13:17:33;16.10;;;4.82;;
18887;SDS011;9576;47.792;9.628;2023-08-21T13:20:36;9.10;;;4.82;;
18887;SDS011;9576;47.792;9.628;2023-08-21T13:23:38;13.43;;;5.00;;
18887;SDS011;9576;47.792;9.628;2023-08-21T13:26:40;9.07;;;4.93;;
18887;SDS011;9576;47.792;9.628;2023-08-21T13:29:42;14.80;;;5.05;;
18887;SDS011;9576;47.792;9.628;2023-08-21T13:32:44;11.15;;;5.00;;
18887;SDS011;9576;47.792;9.628;2023-08-21T13:35:47;11.15;;;4.28;;
18887;SDS011;9576;47.792;9.628;2023-08-21T13:38:49;9.30;;;4.53;;
18887;SDS011;9576;47.792;9.628;2023-08-21T13:41:51;21.52;;;5.28;;
18887;SDS011;9576;47.792;9.628;2023-08-21T13:44:53;12.73;;;5.07;;
18887;SDS011;9576;47.792;9.628;2023-08-21T13:47:55;12.60;;;4.40;;
18887;SDS011;9576;47.792;9.628;2023-08-21T13:50:58;9.75;;;3.67;;
18887;SDS011;9576;47.792;9.628;2023-08-21T13:54:00;5.50;;;3.77;;
18887;SDS011;9576;47.792;9.628;2023-08-21T13:57:02;10.23;;;3.88;;
18887;SDS011;9576;47.792;9.628;2023-08-21T14:00:05;10.80;;;4.00;;
18887;SDS011;9576;47.792;9.628;2023-08-21T14:03:12;14.60;;;4.82;;
18887;SDS011;9576;47.792;9.628;2023-08-21T14:06:15;16.95;;;4.15;;
18887;SDS011;9576;47.792;9.628;2023-08-21T14:09:17;13.25;;;3.92;;
18887;SDS011;9576;47.792;9.628;2023-08-21T14:12:19;13.60;;;4.05;;
18887;SDS011;9576;47.792;9.628;2023-08-21T14:15:21;14.70;;;4.53;;
18887;SDS011;9576;47.792;9.628;2023-08-21T14:18:23;8.13;;;4.13;;
18887;SDS011;9576;47.792;9.628;2023-08-21T14:21:26;14.52;;;4.32;;
18887;SDS011;9576;47.792;9.628;2023-08-21T14:24:28;9.90;;;5.20;;
18887;SDS011;9576;47.792;9.628;2023-08-21T14:27:30;10.68;;;3.92;;
18887;SDS011;9576;47.792;9.628;2023-08-21T14:30:32;12.73;;;3.90;;
18887;SDS011;9576;47.792;9.628;2023-08-21T14:33:34;15.85;;;4.65;;
18887;SDS011;9576;47.792;9.628;2023-08-21T14:36:38;11.10;;;3.85;;
18887;SDS011;9576;47.792;9.628;2023-08-21T14:39:40;16.95;;;4.70;;
18887;SDS011;9576;47.792;9.628;2023-08-21T14:42:42;23.23;;;5.15;;
18887;SDS011;9576;47.792;9.628;2023-08-21T14:45:44;14.10;;;4.10;;
18887;SDS011;9576;47.792;9.628;2023-08-21T14:48:47;8.07;;;4.00;;
18887;SDS011;9576;47.792;9.628;2023-08-21T14:51:50;18.10;;;4.13;;
18887;SDS011;9576;47.792;9.628;2023-08-21T14:54:52;15.40;;;4.20;;
18887;SDS011;9576;47.792;9.628;2023-08-21T14:57:54;6.05;;;3.90;;
18887;SDS011;9576;47.792;9.628;2023-08-21T15:00:56;12.27;;;3.92;;
18887;SDS011;9576;47.792;9.628;2023-08-21T15:03:58;10.35;;;4.00;;
18887;SDS011;9576;47.792;9.628;2023-08-21T15:07:01;20.42;;;3.72;;
18887;SDS011;9576;47.792;9.628;2023-08-21T15:13:05;9.15;;;4.43;;
18887;SDS011;9576;47.792;9.628;2023-08-21T15:16:07;10.57;;;4.05;;
18887;SDS011;9576;47.792;9.628;2023-08-21T15:19:12;27.67;;;4.65;;
18887;SDS011;9576;47.792;9.628;2023-08-21T15:22:15;14.88;;;4.65;;
18887;SDS011;9576;47.792;9.628;2023-08-21T15:25:17;8.90;;;4.38;;
18887;SDS011;9576;47.792;9.628;2023-08-21T15:28:20;14.77;;;5.57;;
18887;SDS011;9576;47.792;9.628;2023-08-21T15:31:22;5.93;;;3.38;;
18887;SDS011;9576;47.792;9.628;2023-08-21T15:34:24;14.65;;;4.35;;
18887;SDS011;9576;47.792;9.628;2023-08-21T15:37:27;12.90;;;3.40;;
18887;SDS011;9576;47.792;9.628;2023-08-21T15:40:29;12.82;;;3.90;;
18887;SDS011;9576;47.792;9.628;2023-08-21T15:43:31;10.20;;;4.22;;
18887;SDS011;9576;47.792;9.628;2023-08-21T15:46:33;11.55;;;4.03;;
18887;SDS011;9576;47.792;9.628;2023-08-21T15:49:35;12.80;;;4.05;;
18887;SDS011;9576;47.792;9.628;2023-08-21T15:52:38;8.18;;;4.00;;
18887;SDS011;9576;47.792;9.628;2023-08-21T15:55:40;12.60;;;3.92;;
18887;SDS011;9576;47.792;9.628;2023-08-21T15:58:42;11.15;;;3.83;;
18887;SDS011;9576;47.792;9.628;2023-08-21T16:01:44;10.45;;;3.63;;
18887;SDS011;9576;47.792;9.628;2023-08-21T16:04:46;6.35;;;3.08;;
18887;SDS011;9576;47.792;9.628;2023-08-21T16:07:49;7.43;;;3.92;;
18887;SDS011;9576;47.792;9.628;2023-08-21T16:10:53;7.05;;;3.28;;
18887;SDS011;9576;47.792;9.628;2023-08-21T16:13:55;15.40;;;3.92;;
18887;SDS011;9576;47.792;9.628;2023-08-21T16:16:58;8.57;;;3.27;;
18887;SDS011;9576;47.792;9.628;2023-08-21T16:20:00;13.88;;;3.50;;
18887;SDS011;9576;47.792;9.628;2023-08-21T16:23:06;10.15;;;3.35;;
18887;SDS011;9576;47.792;9.628;2023-08-21T16:26:08;11.10;;;4.00;;
18887;SDS011;9576;47.792;9.628;2023-08-21T16:29:10;6.85;;;3.85;;
18887;SDS011;9576;47.792;9.628;2023-08-21T16:32:14;7.60;;;3.47;;
18887;SDS011;9576;47.792;9.628;2023-08-21T16:35:16;11.50;;;4.25;;
18887;SDS011;9576;47.792;9.628;2023-08-21T16:38:19;17.48;;;3.83;;
18887;SDS011;9576;47.792;9.628;2023-08-21T16:41:21;13.50;;;3.17;;
18887;SDS011;9576;47.792;9.628;2023-08-21T16:44:23;8.65;;;3.00;;
18887;SDS011;9576;47.792;9.628;2023-08-21T16:47:26;9.73;;;3.40;;
18887;SDS011;9576;47.792;9.628;2023-08-21T16:50:28;11.23;;;3.70;;
18887;SDS011;9576;47.792;9.628;2023-08-21T16:53:31;14.15;;;5.53;;
18887;SDS011;9576;47.792;9.628;2023-08-21T16:56:33;10.10;;;2.80;;
18887;SDS011;9576;47.792;9.628;2023-08-21T16:59:35;18.05;;;3.85;;
18887;SDS011;9576;47.792;9.628;2023-08-21T17:02:37;8.38;;;3.28;;
18887;SDS011;9576;47.792;9.628;2023-08-21T17:05:39;9.95;;;3.85;;
18887;SDS011;9576;47.792;9.628;2023-08-21T17:08:42;22.80;;;3.92;;
18887;SDS011;9576;47.792;9.628;2023-08-21T17:11:44;9.30;;;3.42;;
18887;SDS011;9576;47.792;9.628;2023-08-21T17:14:46;10.32;;;3.35;;
18887;SDS011;9576;47.792;9.628;2023-08-21T17:17:48;8.57;;;3.67;;
18887;SDS011;9576;47.792;9.628;2023-08-21T17:20:50;21.67;;;3.85;;
18887;SDS011;9576;47.792;9.628;2023-08-21T17:23:53;13.32;;;4.03;;
18887;SDS011;9576;47.792;9.628;2023-08-21T17:26:55;14.50;;;3.33;;
18887;SDS011;9576;47.792;9.628;2023-08-21T17:29:57;11.93;;;3.80;;
18887;SDS011;9576;47.792;9.628;2023-08-21T17:32:59;10.85;;;4.10;;
18887;SDS011;9576;47.792;9.628;2023-08-21T17:36:01;13.70;;;4.10;;
18887;SDS011;9576;47.792;9.628;2023-08-21T17:39:04;17.20;;;4.57;;
18887;SDS011;9576;47.792;9.628;2023-08-21T17:42:07;9.75;;;4.13;;
18887;SDS011;9576;47.792;9.628;2023-08-21T17:45:10;13.57;;;5.20;;
18887;SDS011;9576;47.792;9.628;2023-08-21T17:48:12;7.97;;;4.50;;
18887;SDS011;9576;47.792;9.628;2023-08-21T17:51:14;12.02;;;4.43;;
18887;SDS011;9576;47.792;9.628;2023-08-21T17:54:17;7.40;;;4.07;;
18887;SDS011;9576;47.792;9.628;2023-08-21T17:57:19;9.75;;;4.82;;
18887;SDS011;9576;47.792;9.628;2023-08-21T18:00:21;9.77;;;4.32;;
18887;SDS011;9576;47.792;9.628;2023-08-21T18:03:23;21.23;;;5.10;;
18887;SDS011;9576;47.792;9.628;2023-08-21T18:06:25;6.97;;;4.00;;
18887;SDS011;9576;47.792;9.628;2023-08-21T18:09:28;10.80;;;4.90;;
18887;SDS011;9576;47.792;9.628;2023-08-21T18:12:30;12.27;;;4.30;;
18887;SDS011;9576;47.792;9.628;2023-08-21T18:15:32;10.32;;;4.20;;
18887;SDS011;9576;47.792;9.628;2023-08-21T18:18:36;18.85;;;5.03;;
18887;SDS011;9576;47.792;9.628;2023-08-21T18:21:40;10.32;;;5.30;;
18887;SDS011;9576;47.792;9.628;2023-08-21T18:24:43;33.30;;;4.95;;
18887;SDS011;9576;47.792;9.628;2023-08-21T18:27:46;11.98;;;4.65;;